Time;durP1;ratioP1;P1;durP2;ratioP2;P2;SDS_P1;SDS_P2;PMS_P1;PMS_P2;Temp;Humidity;BMP_temperature;BMP_pressure;BME280_temperature;BME280_humidity;BME280_pressure;Samples;Min_cycle;Max_cycle;Signal;HPM_P1;HPM_P2
2022/02/04 00:24:55;;;;;;;17.20;3.00;;;21.10;68.90;;;;;;5031068;28;20222;-77
2022/02/04 00:27:26;;;;;;;16.27;2.70;;;20.00;77.30;;;;;;5030670;28;20188;-74
2022/02/04 00:30:03;;;;;;;15.47;2.57;;;19.40;80.40;;;;;;5031402;28;21355;-77
2022/02/04 00:32:32;;;;;;;11.47;2.50;;;19.30;82.10;;;;;;5030832;28;20214;-74
2022/02/04 00:35:15;;;;;;;13.63;2.57;;;19.00;82.80;;;;;;5031358;28;20176;-80
2022/02/04 00:40:29;;;;;;;14.87;2.67;;;18.90;83.10;;;;;;5031244;28;20219;-77
2022/02/04 00:42:58;;;;;;;15.90;3.03;;;19.00;83.60;;;;;;5030964;28;20219;-77
2022/02/04 00:45:43;;;;;;;12.97;2.43;;;19.70;83.80;;;;;;5031548;28;20184;-78
2022/02/04 00:48:29;;;;;;;12.97;2.30;;;20.30;79.40;;;;;;5034414;28;20529;-76
2022/02/04 00:51:00;;;;;;;15.50;3.00;;;20.90;79.20;;;;;;5034277;28;20181;-82
2022/02/04 00:53:54;;;;;;;13.63;2.27;;;21.40;77.60;;;;;;5035305;28;20292;-78
2022/02/04 00:56:43;;;;;;;13.13;3.33;;;21.70;77.40;;;;;;5034481;28;20189;-77
2022/02/04 01:27:17;;;;;;;6.43;1.50;;;22.30;64.80;;;;;;5035684;28;20318;-85
2022/02/04 01:32:53;;;;;;;6.87;1.70;;;22.70;62.90;;;;;;5028052;28;20655;-79
2022/02/04 01:35:22;;;;;;;8.33;1.67;;;23.30;60.10;;;;;;5034090;28;20190;-82
2022/02/04 01:37:52;;;;;;;11.37;1.97;;;23.30;61.70;;;;;;5027845;28;20293;-79
2022/02/04 01:40:20;;;;;;;13.93;2.57;;;23.10;62.20;;;;;;5033952;28;20224;-78
2022/02/04 01:42:51;;;;;;;11.40;2.30;;;22.60;63.50;;;;;;5034360;28;20643;-80
2022/02/04 01:45:18;;;;;;;12.37;2.57;;;22.80;63.80;;;;;;5033753;28;20215;-79
2022/02/04 01:47:58;;;;;;;9.87;1.90;;;22.50;63.80;;;;;;5035623;28;20180;-80
2022/02/04 01:50:30;;;;;;;14.00;2.90;;;22.80;63.00;;;;;;5034692;28;20549;-76
2022/02/04 01:53:27;;;;;;;14.87;3.13;;;23.10;63.70;;;;;;5035246;28;20607;-81
2022/02/04 01:56:01;;;;;;;15.13;2.50;;;22.70;66.90;;;;;;5030973;28;20571;-84
2022/02/04 01:58:39;;;;;;;11.57;2.10;;;22.10;70.30;;;;;;5065181;28;20192;-81
2022/02/04 02:01:06;;;;;;;9.77;2.40;;;22.20;67.80;;;;;;5039487;28;20180;-78
2022/02/04 02:03:34;;;;;;;10.23;2.17;;;22.10;66.30;;;;;;5034049;28;20234;-74
2022/02/04 02:06:07;;;;;;;8.17;2.10;;;22.30;67.20;;;;;;5031714;28;20191;-79
2022/02/04 02:08:35;;;;;;;7.57;2.03;;;22.90;64.70;;;;;;5033751;28;20287;-80
2022/02/04 02:11:02;;;;;;;14.43;2.40;;;23.20;63.30;;;;;;5030965;28;20181;-81
2022/02/04 02:35:22;;;;;;;7.57;2.53;;;21.90;75.40;;;;;;5033833;28;20731;-79
2022/02/04 02:53:58;;;;;;;14.30;2.23;;;24.20;57.80;;;;;;5031377;28;20296;-79
2022/02/04 02:59:12;;;;;;;9.13;1.60;;;24.30;58.40;;;;;;5030185;28;20516;-73
2022/02/04 03:01:47;;;;;;;11.33;2.07;;;23.90;58.70;;;;;;5033247;28;20590;-73
2022/02/04 03:04:16;;;;;;;8.00;1.90;;;23.70;58.90;;;;;;5032685;28;20187;-74
2022/02/04 03:06:47;;;;;;;12.90;2.53;;;23.30;61.10;;;;;;5033107;28;20186;-73
2022/02/04 03:09:16;;;;;;;17.63;2.50;;;23.30;61.90;;;;;;5032087;28;20372;-77
2022/02/04 03:11:44;;;;;;;7.93;2.20;;;23.60;62.60;;;;;;5029191;28;20201;-75
2022/02/04 03:14:11;;;;;;;12.70;2.67;;;23.20;65.20;;;;;;5029347;28;20236;-80
2022/02/04 03:16:39;;;;;;;12.43;2.40;;;23.00;67.10;;;;;;5032438;28;20189;-78
2022/02/04 03:19:08;;;;;;;15.23;2.53;;;22.60;68.80;;;;;;5031603;28;20176;-86
2022/02/04 03:21:40;;;;;;;14.30;2.47;;;21.80;73.10;;;;;;5032582;28;20544;-79
2022/02/04 03:24:12;;;;;;;10.67;2.33;;;21.60;77.80;;;;;;5030086;28;20667;-75
2022/02/04 03:26:59;;;;;;;12.23;2.67;;;20.60;79.90;;;;;;5031977;28;20668;-75
2022/02/04 03:29:32;;;;;;;16.83;3.17;;;20.30;83.50;;;;;;5029033;28;20550;-75
2022/02/04 03:32:07;;;;;;;11.27;2.57;;;20.10;84.40;;;;;;5032401;28;20689;-74
2022/02/04 03:34:34;;;;;;;15.77;2.90;;;20.00;83.00;;;;;;5032355;28;20221;-74
2022/02/04 03:37:02;;;;;;;16.07;3.03;;;20.20;84.00;;;;;;5031788;28;20633;-75
2022/02/04 03:39:32;;;;;;;14.10;2.80;;;19.70;80.50;;;;;;5029254;28;20275;-73
2022/02/04 03:41:59;;;;;;;13.70;3.67;;;20.10;83.90;;;;;;5031894;28;20203;-74
2022/02/04 03:44:27;;;;;;;12.47;2.67;;;20.30;84.30;;;;;;5030606;28;20204;-74
2022/02/04 03:46:54;;;;;;;16.57;3.17;;;20.20;81.90;;;;;;5031041;28;20188;-74
2022/02/04 03:49:21;;;;;;;16.13;3.17;;;20.10;83.90;;;;;;5030147;28;20579;-74
2022/02/04 03:51:49;;;;;;;14.13;2.83;;;20.20;81.80;;;;;;5030598;28;20204;-72
2022/02/04 03:54:17;;;;;;;16.27;2.50;;;20.30;81.70;;;;;;5030761;28;20669;-77
2022/02/04 03:56:44;;;;;;;12.53;2.50;;;20.60;74.80;;;;;;5030735;28;20180;-74
2022/02/04 03:59:11;;;;;;;16.63;2.80;;;20.70;75.70;;;;;;5029003;28;20195;-74
2022/02/04 04:01:39;;;;;;;11.93;2.03;;;21.00;73.60;;;;;;5031767;28;20200;-76
2022/02/04 04:04:06;;;;;;;18.97;3.00;;;21.10;71.70;;;;;;5029215;28;20623;-77
2022/02/04 04:06:33;;;;;;;13.17;2.67;;;21.20;71.70;;;;;;5031694;28;20191;-81
2022/02/04 04:09:01;;;;;;;10.53;2.17;;;21.00;69.20;;;;;;5030996;28;20180;-79
2022/02/04 04:11:28;;;;;;;14.40;2.47;;;20.80;71.30;;;;;;5029683;28;20185;-78
2022/02/04 04:13:56;;;;;;;10.73;2.17;;;20.70;71.90;;;;;;5031057;28;20213;-78
2022/02/04 04:16:23;;;;;;;14.73;2.50;;;20.80;71.80;;;;;;5046872;28;20191;-81
2022/02/04 04:18:50;;;;;;;10.90;2.33;;;20.70;71.60;;;;;;5047458;28;20666;-75
2022/02/04 04:21:18;;;;;;;15.50;2.43;;;20.70;72.40;;;;;;5029640;28;20176;-80
2022/02/04 04:23:45;;;;;;;14.90;3.43;;;20.80;71.80;;;;;;5032534;28;20188;-76
2022/02/04 04:26:12;;;;;;;24.23;3.40;;;21.10;72.60;;;;;;5032077;28;20188;-78
2022/02/04 04:28:40;;;;;;;16.50;3.47;;;21.50;70.00;;;;;;5030498;28;20187;-77
2022/02/04 04:31:07;;;;;;;13.00;2.83;;;21.70;69.70;;;;;;5031888;28;20184;-78
2022/02/04 04:33:34;;;;;;;17.77;2.73;;;21.90;67.90;;;;;;5032744;28;20213;-75
2022/02/04 04:36:02;;;;;;;14.57;2.53;;;21.80;63.90;;;;;;5032395;28;20215;-75
2022/02/04 04:38:36;;;;;;;11.27;2.37;;;21.90;60.70;;;;;;5025262;28;20180;-75
2022/02/04 04:44:19;;;;;;;13.90;2.23;;;22.00;58.90;;;;;;5031607;28;20204;-75
2022/02/04 05:27:56;;;;;;;7.83;2.00;;;27.70;40.10;;;;;;5026905;28;22075;-75
2022/02/04 05:30:13;;;;;;;8.67;2.13;;;27.80;39.70;;;;;;5027952;28;20214;-75
2022/02/04 05:32:42;;;;;;;12.17;2.13;;;28.00;39.00;;;;;;5033281;28;20191;-75
2022/02/04 05:35:11;;;;;;;11.03;1.60;;;27.20;42.50;;;;;;5034401;28;20176;-75
2022/02/04 05:37:43;;;;;;;9.37;1.77;;;27.50;41.20;;;;;;5031357;28;20191;-76
2022/02/04 05:40:15;;;;;;;12.60;1.80;;;26.90;43.90;;;;;;5030125;28;20228;-80
2022/02/04 05:42:50;;;;;;;8.67;1.97;;;27.10;42.00;;;;;;5031830;28;20177;-78
2022/02/04 05:45:22;;;;;;;12.90;2.50;;;27.70;41.20;;;;;;5033109;28;20179;-74
2022/02/04 05:47:56;;;;;;;12.33;2.30;;;27.20;43.80;;;;;;5033326;28;20212;-76
2022/02/04 06:00:59;;;;;;;11.13;2.20;;;27.30;43.00;;;;;;5031894;28;20200;-77
2022/02/04 06:03:49;;;;;;;9.37;1.70;;;27.50;43.60;;;;;;5030925;28;20181;-75
2022/02/04 06:12:13;;;;;;;10.50;1.90;;;28.30;41.80;;;;;;5031741;28;20189;-78
2022/02/04 06:14:28;;;;;;;8.90;1.93;;;28.20;41.10;;;;;;5030890;28;20286;-78
2022/02/04 06:22:25;;;;;;;8.97;1.90;;;25.90;45.40;;;;;;5036668;28;20191;-76
2022/02/04 06:24:54;;;;;;;9.73;2.20;;;27.30;43.40;;;;;;5032547;28;20280;-73
2022/02/04 06:27:26;;;;;;;11.17;2.17;;;27.90;42.10;;;;;;5034546;28;20188;-80
2022/02/04 06:29:55;;;;;;;11.90;2.53;;;28.00;43.30;;;;;;5031471;28;20687;-75
2022/02/04 06:32:23;;;;;;;13.70;2.37;;;26.20;47.90;;;;;;5033081;28;20284;-73
2022/02/04 06:34:51;;;;;;;10.33;2.20;;;24.80;51.30;;;;;;5032422;28;20216;-79
2022/02/04 06:37:19;;;;;;;16.67;2.63;;;23.80;54.00;;;;;;5032245;28;20184;-77
2022/02/04 06:39:46;;;;;;;15.40;2.20;;;24.70;52.40;;;;;;5047563;28;20189;-73
2022/02/04 06:42:25;;;;;;;10.13;2.50;;;25.40;50.20;;;;;;5031957;28;20338;-74
2022/02/04 06:44:53;;;;;;;9.93;1.83;;;26.20;48.10;;;;;;5031965;28;20226;-74
2022/02/04 06:47:21;;;;;;;11.80;2.27;;;25.10;50.70;;;;;;5031741;28;20262;-73
2022/02/04 06:49:48;;;;;;;8.03;2.40;;;25.60;50.10;;;;;;5036729;28;20543;-75
2022/02/04 06:52:16;;;;;;;18.60;2.70;;;26.20;48.00;;;;;;5030486;28;20191;-73
2022/02/04 06:54:44;;;;;;;9.57;2.20;;;24.80;50.40;;;;;;5030066;28;20224;-73
2022/02/04 06:57:11;;;;;;;17.80;2.83;;;23.50;53.90;;;;;;5031739;28;20677;-74
2022/02/04 06:59:41;;;;;;;21.30;2.60;;;23.30;54.90;;;;;;5032509;28;20197;-74
2022/02/04 07:02:09;;;;;;;13.83;2.23;;;23.20;55.70;;;;;;5034577;28;20195;-81
2022/02/04 07:04:37;;;;;;;9.93;2.23;;;22.90;55.90;;;;;;5033416;28;20617;-75
2022/02/04 07:07:05;;;;;;;17.03;2.57;;;22.80;56.10;;;;;;5039372;28;20249;-74
2022/02/04 07:09:56;;;;;;;17.37;2.80;;;22.80;56.30;;;;;;5032735;28;20189;-72
2022/02/04 07:12:33;;;;;;;9.00;2.17;;;22.70;55.10;;;;;;5033646;28;20965;-73
2022/02/04 07:17:41;;;;;;;10.47;2.63;;;22.90;55.10;;;;;;5032196;28;20177;-73
2022/02/04 07:20:09;;;;;;;15.27;3.03;;;24.10;52.90;;;;;;5031288;28;20181;-76
2022/02/04 07:22:38;;;;;;;18.80;2.77;;;24.50;55.90;;;;;;5030250;28;20267;-75
2022/02/04 07:25:07;;;;;;;17.27;2.83;;;24.20;58.50;;;;;;5031876;28;20185;-78
2022/02/04 07:27:37;;;;;;;11.50;2.63;;;24.10;56.20;;;;;;5031970;28;20188;-75
2022/02/04 07:30:08;;;;;;;12.00;2.40;;;24.50;51.50;;;;;;5029086;28;20216;-74
2022/02/04 07:32:41;;;;;;;9.13;2.50;;;24.10;51.10;;;;;;5032378;28;20643;-75
2022/02/04 07:35:32;;;;;;;11.27;2.40;;;24.80;50.10;;;;;;5029947;28;20329;-76
2022/02/04 07:41:01;;;;;;;9.47;2.10;;;24.30;46.80;;;;;;5032541;28;20317;-76
2022/02/04 07:43:28;;;;;;;8.27;1.63;;;24.80;45.00;;;;;;5025495;28;20272;-78
2022/02/04 07:45:57;;;;;;;15.63;2.00;;;25.20;45.00;;;;;;5032484;28;20177;-76
2022/02/04 07:48:28;;;;;;;9.10;1.87;;;24.60;45.80;;;;;;5047211;28;20643;-72
2022/02/04 07:50:55;;;;;;;10.90;1.80;;;24.10;46.40;;;;;;5030934;28;20183;-80
2022/02/04 07:53:30;;;;;;;12.37;2.20;;;24.30;46.30;;;;;;5032372;28;21004;-73
2022/02/04 07:55:58;;;;;;;10.00;1.63;;;23.90;47.60;;;;;;5032134;28;20270;-74
2022/02/04 07:58:25;;;;;;;6.30;1.70;;;23.50;48.10;;;;;;5030765;28;20180;-74
2022/02/04 08:00:53;;;;;;;10.63;2.10;;;23.30;49.00;;;;;;5031319;28;20639;-74
2022/02/04 08:05:53;;;;;;;11.00;2.10;;;22.80;48.80;;;;;;5031670;28;20185;-72
2022/02/04 08:08:33;;;;;;;6.97;1.53;;;22.50;49.50;;;;;;5032213;28;20177;-73
2022/02/04 08:11:24;;;;;;;9.10;1.40;;;22.40;48.70;;;;;;5031806;28;20220;-75
2022/02/04 08:14:12;;;;;;;10.47;1.90;;;22.30;49.00;;;;;;5027560;28;20220;-73
2022/02/04 08:27:49;;;;;;;9.33;1.97;;;22.00;48.10;;;;;;5029517;28;20196;-73
2022/02/04 08:32:57;;;;;;;10.40;2.37;;;22.00;49.20;;;;;;5030979;28;20188;-74
2022/02/04 08:36:02;;;;;;;12.30;1.90;;;21.90;50.20;;;;;;5029896;28;20185;-75
2022/02/04 08:38:37;;;;;;;8.50;1.70;;;21.80;50.70;;;;;;5028688;28;20230;-75
2022/02/04 08:49:53;;;;;;;9.57;1.60;;;21.50;49.30;;;;;;5018976;28;20176;-74
2022/02/04 08:55:14;;;;;;;10.47;1.77;;;21.30;49.70;;;;;;5027873;28;20965;-74
2022/02/04 08:57:50;;;;;;;5.23;1.50;;;21.30;49.90;;;;;;5030616;28;20662;-73
2022/02/04 09:00:25;;;;;;;9.47;2.00;;;21.30;50.30;;;;;;5029942;28;20189;-74
2022/02/04 09:03:03;;;;;;;7.73;1.50;;;21.20;50.80;;;;;;5029418;28;20539;-75
2022/02/04 09:05:39;;;;;;;8.30;2.20;;;21.20;50.90;;;;;;5024382;28;20230;-75
2022/02/04 09:08:20;;;;;;;7.57;2.00;;;21.10;51.40;;;;;;5032138;28;20184;-74
2022/02/04 09:10:49;;;;;;;13.47;2.43;;;21.10;51.70;;;;;;5034118;28;20208;-75
2022/02/04 09:19:01;;;;;;;11.00;2.40;;;20.90;52.60;;;;;;5033538;28;20258;-75
2022/02/04 09:24:15;;;;;;;14.17;2.20;;;20.80;53.90;;;;;;5030158;28;20184;-75
2022/02/04 09:26:43;;;;;;;12.37;2.23;;;20.80;54.30;;;;;;5033224;28;20647;-77
2022/02/04 09:29:11;;;;;;;10.60;1.73;;;20.90;53.90;;;;;;5028396;28;20576;-74
2022/02/04 09:31:39;;;;;;;10.00;1.60;;;20.90;53.60;;;;;;5032490;28;20238;-76
2022/02/04 09:34:08;;;;;;;9.73;1.80;;;20.90;52.80;;;;;;5034484;28;20208;-74
2022/02/04 09:36:36;;;;;;;9.97;1.90;;;20.90;53.00;;;;;;5032939;28;20201;-74
2022/02/04 09:39:07;;;;;;;13.97;2.80;;;20.90;52.90;;;;;;5033623;28;20677;-73
2022/02/04 09:41:34;;;;;;;11.30;2.00;;;20.80;52.90;;;;;;5035298;28;20216;-76
2022/02/04 09:44:02;;;;;;;10.20;1.73;;;20.80;52.60;;;;;;5033203;28;20228;-75
2022/02/04 09:46:34;;;;;;;10.40;2.00;;;20.80;52.60;;;;;;5033199;28;20184;-75
2022/02/04 09:49:04;;;;;;;9.10;2.10;;;20.80;52.60;;;;;;5031386;28;20743;-73
2022/02/04 10:04:30;;;;;;;10.47;1.77;;;20.80;52.30;;;;;;5030063;28;20172;-75
2022/02/04 10:09:03;;;;;;;6.37;1.70;;;20.70;51.90;;;;;;5036319;28;20678;-79
2022/02/04 10:14:36;;;;;;;10.23;1.80;;;20.60;53.40;;;;;;5033569;28;20226;-77
2022/02/04 10:17:11;;;;;;;9.90;2.17;;;20.70;54.60;;;;;;5029820;28;20280;-75
2022/02/04 10:22:20;;;;;;;10.93;1.87;;;20.80;57.40;;;;;;5033952;28;20189;-76
2022/02/04 10:24:58;;;;;;;15.03;2.50;;;20.90;58.60;;;;;;5030436;28;20188;-76
2022/02/04 10:27:29;;;;;;;12.13;2.53;;;21.00;59.30;;;;;;5033293;28;20203;-75
2022/02/04 10:30:08;;;;;;;13.90;1.97;;;21.00;60.00;;;;;;5029367;28;20654;-74
2022/02/04 10:32:41;;;;;;;7.67;2.00;;;21.00;60.80;;;;;;5033816;28;20184;-76
2022/02/04 10:35:29;;;;;;;9.80;2.27;;;21.00;60.70;;;;;;5033319;28;20216;-77
2022/02/04 10:38:07;;;;;;;9.27;1.67;;;21.00;60.80;;;;;;5032759;28;20184;-80
2022/02/04 10:46:19;;;;;;;8.53;1.93;;;21.10;60.70;;;;;;5032045;28;20245;-76
2022/02/04 11:00:23;;;;;;;4.50;1.50;;;20.80;58.50;;;;;;5030644;28;20196;-75
2022/02/04 11:08:40;;;;;;;8.63;1.80;;;20.80;56.90;;;;;;5032416;28;20636;-77
2022/02/04 11:11:30;;;;;;;9.50;1.70;;;20.70;56.40;;;;;;5031325;28;20227;-77
2022/02/04 11:31:04;;;;;;;15.13;2.30;;;20.80;57.50;;;;;;5029489;28;20203;-83
2022/02/04 11:33:55;;;;;;;8.27;2.03;;;20.80;58.00;;;;;;5031812;28;20200;-79
2022/02/04 11:48:04;;;;;;;6.13;1.23;;;20.70;57.10;;;;;;5030364;28;20717;-75
2022/02/04 11:53:55;;;;;;;14.70;2.73;;;20.70;56.30;;;;;;5031587;28;20601;-76
2022/02/04 11:56:22;;;;;;;10.03;1.73;;;20.70;56.70;;;;;;5032166;28;20239;-80
2022/02/04 11:59:03;;;;;;;7.57;1.73;;;20.70;56.80;;;;;;5032124;28;20177;-76
2022/02/04 12:01:46;;;;;;;8.73;1.97;;;20.80;56.70;;;;;;5032142;28;20176;-73
2022/02/04 12:04:21;;;;;;;10.03;1.87;;;20.70;56.90;;;;;;5029755;28;20182;-75
2022/02/04 12:06:53;;;;;;;10.33;1.90;;;20.70;57.30;;;;;;5030200;28;20180;-75
2022/02/04 12:09:46;;;;;;;18.60;2.53;;;20.60;58.00;;;;;;5031282;28;20165;-75
2022/02/04 12:12:50;;;;;;;11.03;1.67;;;20.60;58.20;;;;;;5031041;28;20173;-73
2022/02/04 12:15:34;;;;;;;11.23;1.90;;;20.60;58.30;;;;;;5031751;28;20247;-77
2022/02/04 12:18:09;;;;;;;13.33;1.70;;;20.60;57.70;;;;;;5032084;28;20507;-74
2022/02/04 12:20:54;;;;;;;5.70;1.70;;;20.70;57.40;;;;;;5032105;28;20215;-74
2022/02/04 12:26:00;;;;;;;6.33;1.30;;;20.60;58.00;;;;;;5032342;28;20207;-73
2022/02/04 12:28:38;;;;;;;10.33;1.73;;;20.70;58.20;;;;;;5028705;28;20282;-74
2022/02/04 12:31:14;;;;;;;13.27;2.07;;;20.60;58.30;;;;;;5028364;28;20180;-76
2022/02/04 12:33:43;;;;;;;11.97;1.77;;;20.60;58.30;;;;;;5031159;28;20222;-76
2022/02/04 12:36:19;;;;;;;11.83;2.27;;;20.60;58.20;;;;;;5031792;28;20185;-79
2022/02/04 12:38:49;;;;;;;8.17;1.53;;;20.60;58.00;;;;;;5027023;28;20177;-74
2022/02/04 12:41:28;;;;;;;8.67;2.03;;;20.70;56.70;;;;;;5031390;28;20220;-74
2022/02/04 12:43:59;;;;;;;13.00;2.03;;;20.60;56.30;;;;;;5033960;28;20180;-74
2022/02/04 12:46:29;;;;;;;6.73;2.10;;;20.60;55.80;;;;;;5035583;28;20176;-74
2022/02/04 12:49:00;;;;;;;9.00;4.30;;;20.50;55.20;;;;;;5034024;28;20176;-75
2022/02/04 12:51:55;;;;;;;9.47;1.60;;;20.50;54.10;;;;;;5035337;28;20173;-75
2022/02/04 12:54:41;;;;;;;9.03;1.60;;;20.50;53.40;;;;;;5034388;28;20222;-76
2022/02/04 13:10:40;;;;;;;7.63;1.60;;;20.50;57.50;;;;;;5034966;28;20310;-76
2022/02/04 13:13:11;;;;;;;10.60;1.90;;;20.60;57.70;;;;;;5034467;28;20165;-74
2022/02/04 13:15:40;;;;;;;9.00;1.83;;;20.60;57.90;;;;;;5030940;28;20185;-74
2022/02/04 13:18:10;;;;;;;10.73;1.80;;;20.50;58.20;;;;;;5034177;28;20299;-74
2022/02/04 13:20:39;;;;;;;7.40;1.57;;;20.50;58.60;;;;;;5028851;28;20181;-75
2022/02/04 13:23:16;;;;;;;6.73;1.80;;;20.50;58.20;;;;;;5034421;28;20169;-73
2022/02/04 13:25:49;;;;;;;9.97;2.17;;;20.40;57.30;;;;;;5029647;28;20176;-76
2022/02/04 13:28:31;;;;;;;6.77;1.50;;;20.40;57.10;;;;;;5031996;28;20223;-75
2022/02/04 13:31:13;;;;;;;10.10;1.80;;;20.40;54.80;;;;;;5031174;28;20173;-76
2022/02/04 13:33:41;;;;;;;6.43;1.17;;;20.30;54.80;;;;;;5033062;28;20231;-74
2022/02/04 13:36:27;;;;;;;9.63;2.00;;;20.30;54.90;;;;;;5033780;28;20223;-76
2022/02/04 13:41:58;;;;;;;14.87;1.63;;;20.30;55.00;;;;;;5034145;28;20274;-74
2022/02/04 13:45:01;;;;;;;7.63;1.60;;;20.30;55.40;;;;;;5033994;28;20272;-74
2022/02/04 13:50:42;;;;;;;11.33;2.13;;;20.30;56.00;;;;;;5033704;28;20181;-76
2022/02/04 13:53:22;;;;;;;9.77;2.17;;;20.40;56.90;;;;;;5032808;28;20180;-78
2022/02/04 13:55:57;;;;;;;14.37;1.80;;;20.50;58.60;;;;;;5030304;28;20211;-76
2022/02/04 13:58:48;;;;;;;12.97;2.30;;;20.50;59.30;;;;;;5033779;28;20184;-76
2022/02/04 14:01:21;;;;;;;12.20;2.23;;;20.50;59.90;;;;;;5033795;28;20634;-75
2022/02/04 14:03:53;;;;;;;6.70;1.50;;;20.50;60.00;;;;;;5034235;28;20192;-77
2022/02/04 14:06:26;;;;;;;13.83;1.90;;;20.50;59.50;;;;;;5028089;28;20188;-75
2022/02/04 14:08:57;;;;;;;11.33;2.20;;;20.50;58.60;;;;;;5033294;28;20189;-74
2022/02/04 14:11:33;;;;;;;9.03;1.83;;;20.40;57.90;;;;;;5032201;28;20177;-75
2022/02/04 14:14:04;;;;;;;6.30;1.80;;;20.50;56.70;;;;;;5029654;28;20290;-76
2022/02/04 14:16:31;;;;;;;14.73;2.23;;;20.60;56.40;;;;;;5032951;28;20216;-76
2022/02/04 14:18:59;;;;;;;10.27;1.70;;;20.50;58.10;;;;;;5029512;28;20188;-74
2022/02/04 14:21:26;;;;;;;9.80;1.93;;;20.50;60.00;;;;;;5032361;28;20185;-78
2022/02/04 14:23:57;;;;;;;10.23;2.17;;;20.50;60.70;;;;;;5034271;28;20279;-75
2022/02/04 14:26:28;;;;;;;8.83;1.73;;;20.40;61.00;;;;;;5033342;28;20212;-75
2022/02/04 14:29:07;;;;;;;14.57;2.27;;;20.30;61.30;;;;;;5032624;28;20195;-76
2022/02/04 14:32:09;;;;;;;10.27;2.07;;;20.30;61.30;;;;;;5033920;28;20211;-75
2022/02/04 14:34:53;;;;;;;8.13;1.90;;;20.30;61.00;;;;;;5032275;28;20630;-74
2022/02/04 14:37:42;;;;;;;12.90;2.67;;;20.30;58.70;;;;;;5030422;28;20275;-76
2022/02/04 15:02:59;;;;;;;38.57;6.10;;;20.30;61.00;;;;;;5026431;28;20189;-74
2022/02/04 15:05:32;;;;;;;16.37;2.40;;;19.80;70.90;;;;;;5026910;28;20192;-82
2022/02/04 15:08:05;;;;;;;9.03;2.20;;;19.10;74.20;;;;;;5031850;28;20268;-74
2022/02/04 15:10:33;;;;;;;15.87;2.70;;;18.90;77.80;;;;;;5031715;28;20260;-74
2022/02/04 15:13:01;;;;;;;13.73;2.70;;;18.80;78.30;;;;;;5032159;28;20243;-78
2022/02/04 15:15:28;;;;;;;14.90;2.60;;;18.80;79.00;;;;;;5030339;28;20215;-84
2022/02/04 15:17:55;;;;;;;11.43;2.10;;;18.70;80.70;;;;;;5032711;28;20189;-74
2022/02/04 15:20:23;;;;;;;14.60;1.80;;;18.70;80.10;;;;;;5033163;28;20709;-73
2022/02/04 15:22:50;;;;;;;13.93;2.40;;;18.80;79.80;;;;;;5032127;28;20218;-74
2022/02/04 15:25:21;;;;;;;9.10;1.97;;;18.80;79.80;;;;;;5031753;28;20191;-72
2022/02/04 15:28:14;;;;;;;14.03;2.47;;;18.80;80.80;;;;;;5031778;28;20192;-72
2022/02/04 15:30:44;;;;;;;12.50;2.50;;;18.80;80.50;;;;;;5029060;28;20189;-73
2022/02/04 15:33:12;;;;;;;17.20;2.87;;;19.00;78.70;;;;;;5032145;28;20237;-75
2022/02/04 15:35:39;;;;;;;15.87;2.43;;;19.00;79.40;;;;;;5031881;28;20181;-73
2022/02/04 15:38:09;;;;;;;9.67;2.40;;;19.00;79.80;;;;;;5031899;28;20198;-72
2022/02/04 15:40:36;;;;;;;8.73;2.47;;;19.00;79.50;;;;;;5032813;28;20228;-74
2022/02/04 15:43:05;;;;;;;8.47;2.43;;;19.00;79.40;;;;;;5030705;28;20189;-72
2022/02/04 15:53:29;;;;;;;5.80;1.53;;;19.00;76.90;;;;;;5031752;28;20697;-75
2022/02/04 15:56:14;;;;;;;7.40;1.50;;;18.90;76.90;;;;;;5029052;28;20184;-83
2022/02/04 15:58:59;;;;;;;6.37;1.47;;;19.00;73.90;;;;;;5028761;28;20173;-76
2022/02/04 16:01:53;;;;;;;6.77;1.90;;;19.00;73.60;;;;;;5029338;28;20177;-78
2022/02/04 16:04:25;;;;;;;24.40;3.03;;;19.10;73.60;;;;;;5031413;28;20203;-74
2022/02/04 16:06:53;;;;;;;9.37;1.93;;;18.80;79.00;;;;;;5028668;28;20255;-73
2022/02/04 16:09:22;;;;;;;12.47;2.23;;;18.50;81.90;;;;;;5029780;28;20183;-75
2022/02/04 16:11:57;;;;;;;19.13;3.20;;;18.20;83.70;;;;;;5029736;28;20246;-73
2022/02/04 16:14:47;;;;;;;11.23;2.40;;;18.00;85.60;;;;;;5031174;28;20200;-74
2022/02/04 16:17:28;;;;;;;17.17;2.60;;;17.80;85.60;;;;;;5030127;28;20737;-74
2022/02/04 16:20:11;;;;;;;14.67;2.50;;;17.70;85.60;;;;;;5029794;28;20237;-74
2022/02/04 16:23:05;;;;;;;16.33;2.77;;;17.70;85.30;;;;;;5030950;28;20176;-74
2022/02/04 16:30:44;;;;;;;12.37;2.43;;;17.70;85.50;;;;;;5031465;28;20189;-74
2022/02/04 16:33:12;;;;;;;13.40;2.37;;;17.70;85.90;;;;;;5028424;28;20177;-74
2022/02/04 16:35:39;;;;;;;16.27;2.83;;;17.70;86.30;;;;;;5031744;28;20194;-75
2022/02/04 16:38:09;;;;;;;11.03;2.57;;;17.80;86.70;;;;;;5029613;28;20189;-74
2022/02/04 16:40:42;;;;;;;12.20;2.50;;;17.70;86.90;;;;;;5031728;28;20621;-73
2022/02/04 16:43:10;;;;;;;15.37;2.30;;;17.60;87.50;;;;;;5030964;28;20227;-70
2022/02/04 16:45:37;;;;;;;8.40;2.43;;;17.50;88.30;;;;;;5031691;28;20188;-74
2022/02/04 16:48:04;;;;;;;16.43;3.33;;;17.40;88.10;;;;;;5031571;28;20639;-86
2022/02/04 16:50:32;;;;;;;20.90;3.77;;;17.50;88.90;;;;;;5031976;28;20176;-77
2022/02/04 16:53:00;;;;;;;12.80;2.97;;;17.30;89.60;;;;;;5030253;28;20172;-81
2022/02/04 16:55:27;;;;;;;13.13;2.53;;;17.30;89.80;;;;;;5031416;28;20685;-81
2022/02/04 16:57:55;;;;;;;15.47;3.07;;;17.30;90.10;;;;;;5031780;28;20172;-83
2022/02/04 17:00:25;;;;;;;12.73;2.70;;;17.30;90.30;;;;;;5031468;28;20612;-77
2022/02/04 17:02:58;;;;;;;21.30;3.00;;;17.30;90.30;;;;;;5031428;28;20669;-83
2022/02/04 17:05:36;;;;;;;25.00;3.67;;;17.30;90.50;;;;;;5032037;28;20265;-80
2022/02/04 17:08:08;;;;;;;16.30;2.33;;;17.30;91.10;;;;;;5031204;28;20188;-80
2022/02/04 17:10:41;;;;;;;17.00;3.20;;;17.30;91.40;;;;;;5032091;28;20519;-80
2022/02/04 17:13:08;;;;;;;14.10;2.93;;;17.30;91.70;;;;;;5031408;28;20888;-79
2022/02/04 17:15:38;;;;;;;12.23;2.77;;;17.30;91.40;;;;;;5031119;28;20196;-79
2022/02/04 17:18:07;;;;;;;18.37;2.73;;;17.30;91.40;;;;;;5031499;28;20189;-80
2022/02/04 17:20:35;;;;;;;13.50;2.37;;;17.30;91.60;;;;;;5031756;28;20195;-80
2022/02/04 17:23:03;;;;;;;19.13;2.63;;;17.40;91.80;;;;;;5030701;28;20227;-77
2022/02/04 17:25:35;;;;;;;15.77;2.47;;;17.50;91.90;;;;;;5031510;28;20212;-78
2022/02/04 17:28:03;;;;;;;16.30;3.70;;;17.30;89.70;;;;;;5031475;28;20570;-76
2022/02/04 17:30:31;;;;;;;15.30;2.20;;;17.50;85.30;;;;;;5032172;28;20242;-78
2022/02/04 17:33:00;;;;;;;20.40;2.47;;;17.60;84.40;;;;;;5034611;28;20280;-78
2022/02/04 17:35:27;;;;;;;16.17;2.63;;;17.80;80.80;;;;;;5027834;28;20303;-77
2022/02/04 17:37:57;;;;;;;18.77;2.47;;;18.00;78.70;;;;;;5034295;28;20180;-75
2022/02/04 17:40:26;;;;;;;15.87;2.40;;;17.90;79.50;;;;;;5037607;28;20718;-76
2022/02/04 17:42:55;;;;;;;12.73;2.07;;;17.90;78.60;;;;;;5034849;28;20183;-76
2022/02/04 17:45:23;;;;;;;15.63;2.53;;;17.90;79.80;;;;;;5033365;28;20184;-76
2022/02/04 17:47:58;;;;;;;10.57;2.27;;;17.90;77.40;;;;;;5033654;28;20207;-76
2022/02/04 17:50:33;;;;;;;19.43;2.93;;;18.20;75.50;;;;;;5034838;28;20201;-75
2022/02/04 17:53:22;;;;;;;12.63;2.10;;;18.20;75.40;;;;;;5033531;28;20196;-75
2022/02/04 17:56:16;;;;;;;16.03;2.40;;;18.30;74.00;;;;;;5036666;28;20196;-77
2022/02/04 17:59:04;;;;;;;15.50;2.67;;;18.30;73.30;;;;;;5034713;28;20199;-74
2022/02/04 18:01:40;;;;;;;13.37;2.63;;;18.40;72.40;;;;;;5035929;28;20176;-77
2022/02/04 18:07:10;;;;;;;13.83;2.43;;;18.30;73.30;;;;;;5031732;28;20547;-76
2022/02/04 18:09:40;;;;;;;14.47;2.63;;;18.30;73.10;;;;;;5032009;28;20176;-76
2022/02/04 18:12:09;;;;;;;18.80;2.23;;;18.30;72.20;;;;;;5032732;28;20177;-77
2022/02/04 18:14:37;;;;;;;12.03;2.30;;;18.30;72.20;;;;;;5033227;28;20223;-76
2022/02/04 18:17:05;;;;;;;17.23;2.37;;;18.30;70.90;;;;;;5032284;28;20252;-77
2022/02/04 18:19:33;;;;;;;11.90;2.27;;;18.70;69.20;;;;;;5059530;28;20177;-77
2022/02/04 18:22:01;;;;;;;9.87;2.00;;;18.60;69.40;;;;;;5032380;28;20181;-77
2022/02/04 18:24:29;;;;;;;11.20;2.47;;;18.70;68.90;;;;;;5034179;28;20196;-77
2022/02/04 18:26:57;;;;;;;10.00;2.20;;;18.60;70.20;;;;;;5034142;28;20717;-75
2022/02/04 18:29:25;;;;;;;12.07;2.30;;;18.80;69.00;;;;;;5028638;28;20597;-76
2022/02/04 18:31:54;;;;;;;10.97;1.87;;;18.80;67.30;;;;;;5034382;28;20188;-75
2022/02/04 18:34:21;;;;;;;19.70;2.70;;;18.80;68.00;;;;;;5033241;28;20242;-75
2022/02/04 18:36:52;;;;;;;10.70;2.47;;;18.80;66.50;;;;;;5032956;28;20187;-73
2022/02/04 18:42:40;;;;;;;14.13;1.97;;;18.70;67.80;;;;;;5032015;28;20204;-76
2022/02/04 18:45:31;;;;;;;15.17;2.40;;;18.50;67.70;;;;;;5032930;28;20184;-72
2022/02/04 18:50:35;;;;;;;14.10;3.13;;;18.40;68.40;;;;;;5033463;28;20176;-74
2022/02/04 18:58:21;;;;;;;11.20;1.70;;;18.70;64.10;;;;;;5033286;28;20651;-73
2022/02/04 19:00:53;;;;;;;9.70;2.00;;;18.70;64.20;;;;;;5048905;28;20192;-75
2022/02/04 19:03:25;;;;;;;11.57;1.93;;;18.70;63.90;;;;;;5033288;28;20187;-74